sensor_id;sensor_type;location;lat;lon;timestamp;P1;durP1;ratioP1;P2;durP2;ratioP2
6426;SDS011;3246;42.664;23.308;2022-12-11T00:01:46;34.10;;;23.63;;
6426;SDS011;3246;42.664;23.308;2022-12-11T00:04:12;38.13;;;22.50;;
6426;SDS011;3246;42.664;23.308;2022-12-11T00:06:40;33.00;;;21.40;;
6426;SDS011;3246;42.664;23.308;2022-12-11T00:09:08;34.30;;;21.83;;
6426;SDS011;3246;42.664;23.308;2022-12-11T00:11:35;26.93;;;18.33;;
6426;SDS011;3246;42.664;23.308;2022-12-11T00:14:01;29.17;;;17.67;;
6426;SDS011;3246;42.664;23.308;2022-12-11T00:16:28;32.78;;;21.00;;
6426;SDS011;3246;42.664;23.308;2022-12-11T00:18:55;30.83;;;18.13;;
6426;SDS011;3246;42.664;23.308;2022-12-11T00:21:21;28.50;;;19.35;;
6426;SDS011;3246;42.664;23.308;2022-12-11T00:23:49;24.93;;;18.03;;
6426;SDS011;3246;42.664;23.308;2022-12-11T00:26:15;28.05;;;17.88;;
6426;SDS011;3246;42.664;23.308;2022-12-11T00:28:42;31.17;;;19.02;;
6426;SDS011;3246;42.664;23.308;2022-12-11T00:31:10;26.85;;;17.98;;
6426;SDS011;3246;42.664;23.308;2022-12-11T00:33:38;25.50;;;17.30;;
6426;SDS011;3246;42.664;23.308;2022-12-11T00:36:08;30.97;;;17.03;;
6426;SDS011;3246;42.664;23.308;2022-12-11T00:38:35;25.93;;;16.50;;
6426;SDS011;3246;42.664;23.308;2022-12-11T00:41:03;25.70;;;16.77;;
6426;SDS011;3246;42.664;23.308;2022-12-11T00:43:30;19.33;;;14.07;;
6426;SDS011;3246;42.664;23.308;2022-12-11T00:45:56;24.03;;;14.23;;
6426;SDS011;3246;42.664;23.308;2022-12-11T00:48:23;19.73;;;14.07;;
6426;SDS011;3246;42.664;23.308;2022-12-11T00:50:49;21.70;;;14.57;;
6426;SDS011;3246;42.664;23.308;2022-12-11T00:53:16;24.30;;;15.40;;
6426;SDS011;3246;42.664;23.308;2022-12-11T00:55:42;18.60;;;13.20;;
6426;SDS011;3246;42.664;23.308;2022-12-11T00:58:11;17.93;;;9.83;;
6426;SDS011;3246;42.664;23.308;2022-12-11T01:00:37;18.97;;;12.73;;
6426;SDS011;3246;42.664;23.308;2022-12-11T01:03:04;22.13;;;12.83;;
6426;SDS011;3246;42.664;23.308;2022-12-11T01:05:31;16.70;;;10.70;;
6426;SDS011;3246;42.664;23.308;2022-12-11T01:07:58;16.90;;;11.17;;
6426;SDS011;3246;42.664;23.308;2022-12-11T01:10:24;16.47;;;10.97;;
6426;SDS011;3246;42.664;23.308;2022-12-11T01:12:52;19.43;;;11.93;;
6426;SDS011;3246;42.664;23.308;2022-12-11T01:15:21;13.67;;;8.90;;
6426;SDS011;3246;42.664;23.308;2022-12-11T01:17:48;12.87;;;9.83;;
6426;SDS011;3246;42.664;23.308;2022-12-11T01:20:14;12.50;;;8.93;;
6426;SDS011;3246;42.664;23.308;2022-12-11T01:22:41;12.53;;;10.17;;
6426;SDS011;3246;42.664;23.308;2022-12-11T01:25:08;11.03;;;8.83;;
6426;SDS011;3246;42.664;23.308;2022-12-11T01:27:34;15.33;;;10.00;;
6426;SDS011;3246;42.664;23.308;2022-12-11T01:30:01;14.27;;;9.27;;
6426;SDS011;3246;42.664;23.308;2022-12-11T01:32:29;12.00;;;9.13;;
6426;SDS011;3246;42.664;23.308;2022-12-11T01:34:56;14.80;;;9.80;;
6426;SDS011;3246;42.664;23.308;2022-12-11T01:37:22;14.65;;;10.32;;
6426;SDS011;3246;42.664;23.308;2022-12-11T01:39:49;13.73;;;9.43;;
6426;SDS011;3246;42.664;23.308;2022-12-11T01:42:16;13.77;;;9.60;;
6426;SDS011;3246;42.664;23.308;2022-12-11T01:47:29;15.43;;;9.00;;
6426;SDS011;3246;42.664;23.308;2022-12-11T01:49:55;14.40;;;8.80;;
6426;SDS011;3246;42.664;23.308;2022-12-11T01:52:22;15.10;;;9.13;;
6426;SDS011;3246;42.664;23.308;2022-12-11T01:54:48;11.10;;;7.60;;
6426;SDS011;3246;42.664;23.308;2022-12-11T01:57:15;11.90;;;7.93;;
6426;SDS011;3246;42.664;23.308;2022-12-11T01:59:43;14.97;;;9.17;;
6426;SDS011;3246;42.664;23.308;2022-12-11T02:02:11;7.97;;;7.00;;
6426;SDS011;3246;42.664;23.308;2022-12-11T02:04:40;10.30;;;6.73;;
6426;SDS011;3246;42.664;23.308;2022-12-11T02:07:08;4.90;;;2.23;;
6426;SDS011;3246;42.664;23.308;2022-12-11T02:09:35;5.10;;;3.13;;
6426;SDS011;3246;42.664;23.308;2022-12-11T02:12:14;7.50;;;4.35;;
6426;SDS011;3246;42.664;23.308;2022-12-11T02:14:43;6.18;;;3.67;;
6426;SDS011;3246;42.664;23.308;2022-12-11T02:17:15;2.58;;;2.38;;
6426;SDS011;3246;42.664;23.308;2022-12-11T02:19:51;1.83;;;1.60;;
6426;SDS011;3246;42.664;23.308;2022-12-11T02:22:21;3.97;;;1.75;;
6426;SDS011;3246;42.664;23.308;2022-12-11T02:24:55;1.80;;;1.52;;
6426;SDS011;3246;42.664;23.308;2022-12-11T02:27:26;2.88;;;1.63;;
6426;SDS011;3246;42.664;23.308;2022-12-11T02:29:56;0.57;;;0.40;;
6426;SDS011;3246;42.664;23.308;2022-12-11T02:32:29;1.15;;;0.90;;
6426;SDS011;3246;42.664;23.308;2022-12-11T02:34:59;2.90;;;0.70;;
6426;SDS011;3246;42.664;23.308;2022-12-11T02:37:28;1.30;;;0.85;;
6426;SDS011;3246;42.664;23.308;2022-12-11T02:39:55;1.30;;;1.20;;
6426;SDS011;3246;42.664;23.308;2022-12-11T02:42:23;2.15;;;1.20;;
6426;SDS011;3246;42.664;23.308;2022-12-11T02:44:50;1.27;;;1.17;;
6426;SDS011;3246;42.664;23.308;2022-12-11T02:47:19;1.75;;;1.50;;
6426;SDS011;3246;42.664;23.308;2022-12-11T02:49:47;1.38;;;1.27;;
6426;SDS011;3246;42.664;23.308;2022-12-11T02:52:15;1.20;;;1.20;;
6426;SDS011;3246;42.664;23.308;2022-12-11T02:54:44;0.77;;;0.77;;
6426;SDS011;3246;42.664;23.308;2022-12-11T02:57:12;1.20;;;1.08;;
6426;SDS011;3246;42.664;23.308;2022-12-11T02:59:41;1.15;;;1.15;;
6426;SDS011;3246;42.664;23.308;2022-12-11T03:02:09;1.65;;;1.55;;
6426;SDS011;3246;42.664;23.308;2022-12-11T03:04:37;2.67;;;1.70;;
6426;SDS011;3246;42.664;23.308;2022-12-11T03:07:06;2.10;;;1.10;;
6426;SDS011;3246;42.664;23.308;2022-12-11T03:09:36;2.45;;;0.90;;
6426;SDS011;3246;42.664;23.308;2022-12-11T03:12:03;1.10;;;1.10;;
6426;SDS011;3246;42.664;23.308;2022-12-11T03:14:30;2.33;;;0.90;;
6426;SDS011;3246;42.664;23.308;2022-12-11T03:16:59;0.50;;;0.50;;
6426;SDS011;3246;42.664;23.308;2022-12-11T03:19:31;0.30;;;0.30;;
6426;SDS011;3246;42.664;23.308;2022-12-11T03:22:02;1.17;;;0.50;;
6426;SDS011;3246;42.664;23.308;2022-12-11T03:24:33;1.25;;;0.90;;
6426;SDS011;3246;42.664;23.308;2022-12-11T03:27:04;0.43;;;0.43;;
6426;SDS011;3246;42.664;23.308;2022-12-11T03:29:34;0.90;;;0.47;;
6426;SDS011;3246;42.664;23.308;2022-12-11T03:32:03;3.53;;;0.75;;
6426;SDS011;3246;42.664;23.308;2022-12-11T03:34:32;0.95;;;0.95;;
6426;SDS011;3246;42.664;23.308;2022-12-11T03:37:03;0.77;;;0.77;;
6426;SDS011;3246;42.664;23.308;2022-12-11T03:39:31;1.15;;;1.02;;
6426;SDS011;3246;42.664;23.308;2022-12-11T03:41:58;1.40;;;1.13;;
6426;SDS011;3246;42.664;23.308;2022-12-11T03:44:26;1.85;;;1.02;;
6426;SDS011;3246;42.664;23.308;2022-12-11T03:46:54;1.20;;;1.10;;
6426;SDS011;3246;42.664;23.308;2022-12-11T03:49:22;2.95;;;0.70;;
6426;SDS011;3246;42.664;23.308;2022-12-11T03:51:51;1.55;;;1.02;;
6426;SDS011;3246;42.664;23.308;2022-12-11T03:54:20;0.70;;;0.70;;
6426;SDS011;3246;42.664;23.308;2022-12-11T03:56:48;0.85;;;0.85;;
6426;SDS011;3246;42.664;23.308;2022-12-11T03:59:16;1.95;;;0.75;;
6426;SDS011;3246;42.664;23.308;2022-12-11T04:01:43;1.15;;;0.98;;
6426;SDS011;3246;42.664;23.308;2022-12-11T04:04:09;1.02;;;0.77;;
6426;SDS011;3246;42.664;23.308;2022-12-11T04:06:36;2.22;;;0.80;;
6426;SDS011;3246;42.664;23.308;2022-12-11T04:09:02;1.02;;;0.80;;
6426;SDS011;3246;42.664;23.308;2022-12-11T04:11:30;1.25;;;0.85;;
6426;SDS011;3246;42.664;23.308;2022-12-11T04:13:59;3.10;;;0.93;;
6426;SDS011;3246;42.664;23.308;2022-12-11T04:16:44;2.70;;;1.20;;
6426;SDS011;3246;42.664;23.308;2022-12-11T04:19:10;2.55;;;0.68;;
6426;SDS011;3246;42.664;23.308;2022-12-11T04:21:54;1.83;;;0.88;;
6426;SDS011;3246;42.664;23.308;2022-12-11T04:24:53;2.67;;;1.50;;
6426;SDS011;3246;42.664;23.308;2022-12-11T04:27:21;3.40;;;1.08;;
6426;SDS011;3246;42.664;23.308;2022-12-11T04:30:05;1.75;;;0.77;;
6426;SDS011;3246;42.664;23.308;2022-12-11T04:32:32;0.70;;;0.70;;
6426;SDS011;3246;42.664;23.308;2022-12-11T04:34:59;1.42;;;0.50;;
6426;SDS011;3246;42.664;23.308;2022-12-11T04:37:26;4.00;;;0.73;;
6426;SDS011;3246;42.664;23.308;2022-12-11T04:39:52;0.35;;;0.30;;
6426;SDS011;3246;42.664;23.308;2022-12-11T04:42:20;0.80;;;0.40;;
6426;SDS011;3246;42.664;23.308;2022-12-11T04:44:47;1.73;;;0.77;;
6426;SDS011;3246;42.664;23.308;2022-12-11T04:47:13;0.85;;;0.52;;
6426;SDS011;3246;42.664;23.308;2022-12-11T04:49:40;0.73;;;0.68;;
6426;SDS011;3246;42.664;23.308;2022-12-11T04:52:06;0.60;;;0.30;;
6426;SDS011;3246;42.664;23.308;2022-12-11T04:54:33;0.50;;;0.50;;
6426;SDS011;3246;42.664;23.308;2022-12-11T04:56:59;0.70;;;0.32;;
6426;SDS011;3246;42.664;23.308;2022-12-11T04:59:27;0.47;;;0.35;;
6426;SDS011;3246;42.664;23.308;2022-12-11T05:01:54;0.60;;;0.47;;
6426;SDS011;3246;42.664;23.308;2022-12-11T05:04:21;2.22;;;0.60;;
6426;SDS011;3246;42.664;23.308;2022-12-11T05:06:48;0.40;;;0.40;;
6426;SDS011;3246;42.664;23.308;2022-12-11T05:09:14;0.63;;;0.40;;
6426;SDS011;3246;42.664;23.308;2022-12-11T05:11:41;1.23;;;0.50;;
6426;SDS011;3246;42.664;23.308;2022-12-11T05:14:08;0.40;;;0.30;;
6426;SDS011;3246;42.664;23.308;2022-12-11T05:16:36;0.52;;;0.40;;
6426;SDS011;3246;42.664;23.308;2022-12-11T05:19:02;0.40;;;0.35;;
6426;SDS011;3246;42.664;23.308;2022-12-11T05:21:29;0.50;;;0.47;;
6426;SDS011;3246;42.664;23.308;2022-12-11T05:23:55;0.40;;;0.40;;
6426;SDS011;3246;42.664;23.308;2022-12-11T05:26:22;3.70;;;0.77;;
6426;SDS011;3246;42.664;23.308;2022-12-11T05:28:50;3.00;;;0.57;;
6426;SDS011;3246;42.664;23.308;2022-12-11T05:31:18;1.00;;;0.40;;
6426;SDS011;3246;42.664;23.308;2022-12-11T05:33:46;0.75;;;0.52;;
6426;SDS011;3246;42.664;23.308;2022-12-11T05:36:15;1.38;;;0.52;;
6426;SDS011;3246;42.664;23.308;2022-12-11T05:38:42;2.45;;;0.98;;
6426;SDS011;3246;42.664;23.308;2022-12-11T05:41:09;1.63;;;0.85;;
6426;SDS011;3246;42.664;23.308;2022-12-11T05:43:37;1.85;;;0.90;;
6426;SDS011;3246;42.664;23.308;2022-12-11T05:46:04;5.15;;;0.60;;
6426;SDS011;3246;42.664;23.308;2022-12-11T05:48:31;2.60;;;1.20;;
6426;SDS011;3246;42.664;23.308;2022-12-11T05:50:59;3.70;;;1.95;;
6426;SDS011;3246;42.664;23.308;2022-12-11T05:53:26;7.45;;;3.63;;
6426;SDS011;3246;42.664;23.308;2022-12-11T05:55:53;2.72;;;1.48;;
6426;SDS011;3246;42.664;23.308;2022-12-11T05:58:20;4.25;;;0.95;;
6426;SDS011;3246;42.664;23.308;2022-12-11T06:00:46;1.95;;;1.15;;
6426;SDS011;3246;42.664;23.308;2022-12-11T06:03:13;2.60;;;0.50;;
6426;SDS011;3246;42.664;23.308;2022-12-11T06:05:40;3.30;;;1.77;;
6426;SDS011;3246;42.664;23.308;2022-12-11T06:08:08;0.85;;;0.80;;
6426;SDS011;3246;42.664;23.308;2022-12-11T06:10:35;1.30;;;1.20;;
6426;SDS011;3246;42.664;23.308;2022-12-11T06:13:01;1.33;;;0.75;;
6426;SDS011;3246;42.664;23.308;2022-12-11T06:15:28;2.00;;;1.30;;
6426;SDS011;3246;42.664;23.308;2022-12-11T06:17:54;0.38;;;0.38;;
6426;SDS011;3246;42.664;23.308;2022-12-11T06:20:21;1.10;;;0.80;;
6426;SDS011;3246;42.664;23.308;2022-12-11T06:22:47;0.30;;;0.30;;
6426;SDS011;3246;42.664;23.308;2022-12-11T06:25:15;1.23;;;0.65;;
6426;SDS011;3246;42.664;23.308;2022-12-11T06:27:42;1.45;;;0.95;;
6426;SDS011;3246;42.664;23.308;2022-12-11T06:30:09;2.28;;;0.65;;
6426;SDS011;3246;42.664;23.308;2022-12-11T06:32:35;0.82;;;0.65;;
6426;SDS011;3246;42.664;23.308;2022-12-11T06:35:02;2.58;;;1.55;;
6426;SDS011;3246;42.664;23.308;2022-12-11T06:37:29;0.38;;;0.38;;
6426;SDS011;3246;42.664;23.308;2022-12-11T06:39:55;2.30;;;0.65;;
6426;SDS011;3246;42.664;23.308;2022-12-11T06:42:23;0.98;;;0.90;;
6426;SDS011;3246;42.664;23.308;2022-12-11T06:44:49;2.25;;;1.38;;
6426;SDS011;3246;42.664;23.308;2022-12-11T06:47:16;0.73;;;0.55;;
6426;SDS011;3246;42.664;23.308;2022-12-11T06:49:43;2.90;;;0.70;;
6426;SDS011;3246;42.664;23.308;2022-12-11T06:52:09;0.70;;;0.70;;
6426;SDS011;3246;42.664;23.308;2022-12-11T06:54:36;3.17;;;1.27;;
6426;SDS011;3246;42.664;23.308;2022-12-11T06:57:02;2.90;;;1.02;;
6426;SDS011;3246;42.664;23.308;2022-12-11T06:59:30;1.38;;;1.00;;
6426;SDS011;3246;42.664;23.308;2022-12-11T07:01:57;1.08;;;0.90;;
6426;SDS011;3246;42.664;23.308;2022-12-11T07:04:23;1.00;;;0.60;;
6426;SDS011;3246;42.664;23.308;2022-12-11T07:06:51;4.13;;;0.73;;
6426;SDS011;3246;42.664;23.308;2022-12-11T07:09:18;1.38;;;0.63;;
6426;SDS011;3246;42.664;23.308;2022-12-11T07:11:44;0.52;;;0.52;;
6426;SDS011;3246;42.664;23.308;2022-12-11T07:14:11;4.47;;;1.90;;
6426;SDS011;3246;42.664;23.308;2022-12-11T07:16:39;5.63;;;4.03;;
6426;SDS011;3246;42.664;23.308;2022-12-11T07:19:05;2.15;;;0.60;;
6426;SDS011;3246;42.664;23.308;2022-12-11T07:21:32;1.75;;;0.40;;
6426;SDS011;3246;42.664;23.308;2022-12-11T07:23:58;0.88;;;0.80;;
6426;SDS011;3246;42.664;23.308;2022-12-11T07:26:25;4.25;;;0.80;;
6426;SDS011;3246;42.664;23.308;2022-12-11T07:28:51;3.80;;;1.13;;
6426;SDS011;3246;42.664;23.308;2022-12-11T07:31:19;1.48;;;0.98;;
6426;SDS011;3246;42.664;23.308;2022-12-11T07:33:51;1.50;;;1.40;;
6426;SDS011;3246;42.664;23.308;2022-12-11T07:36:18;4.40;;;2.47;;
6426;SDS011;3246;42.664;23.308;2022-12-11T07:38:44;2.08;;;1.90;;
6426;SDS011;3246;42.664;23.308;2022-12-11T07:41:12;2.13;;;1.58;;
6426;SDS011;3246;42.664;23.308;2022-12-11T07:43:39;5.97;;;3.05;;
6426;SDS011;3246;42.664;23.308;2022-12-11T07:46:06;3.80;;;1.83;;
6426;SDS011;3246;42.664;23.308;2022-12-11T07:48:33;4.18;;;2.20;;
6426;SDS011;3246;42.664;23.308;2022-12-11T07:51:07;5.50;;;2.50;;
6426;SDS011;3246;42.664;23.308;2022-12-11T07:53:34;2.53;;;1.80;;
6426;SDS011;3246;42.664;23.308;2022-12-11T07:56:00;6.20;;;2.15;;
6426;SDS011;3246;42.664;23.308;2022-12-11T07:58:27;6.55;;;1.90;;
6426;SDS011;3246;42.664;23.308;2022-12-11T08:00:53;2.55;;;1.00;;
6426;SDS011;3246;42.664;23.308;2022-12-11T08:03:20;1.40;;;0.93;;
6426;SDS011;3246;42.664;23.308;2022-12-11T08:05:46;1.42;;;0.65;;
6426;SDS011;3246;42.664;23.308;2022-12-11T08:08:14;0.73;;;0.63;;
6426;SDS011;3246;42.664;23.308;2022-12-11T08:10:41;1.23;;;0.73;;
6426;SDS011;3246;42.664;23.308;2022-12-11T08:13:08;3.08;;;0.90;;
6426;SDS011;3246;42.664;23.308;2022-12-11T08:15:34;2.53;;;0.82;;
6426;SDS011;3246;42.664;23.308;2022-12-11T08:18:01;0.70;;;0.60;;
6426;SDS011;3246;42.664;23.308;2022-12-11T08:20:27;2.25;;;0.90;;
6426;SDS011;3246;42.664;23.308;2022-12-11T08:22:54;0.90;;;0.90;;
6426;SDS011;3246;42.664;23.308;2022-12-11T08:25:22;3.83;;;0.82;;
6426;SDS011;3246;42.664;23.308;2022-12-11T08:27:49;0.70;;;0.47;;
6426;SDS011;3246;42.664;23.308;2022-12-11T08:30:16;1.80;;;0.52;;
6426;SDS011;3246;42.664;23.308;2022-12-11T08:32:42;2.03;;;0.90;;
6426;SDS011;3246;42.664;23.308;2022-12-11T08:35:09;1.15;;;0.95;;
6426;SDS011;3246;42.664;23.308;2022-12-11T08:37:35;1.40;;;0.80;;
6426;SDS011;3246;42.664;23.308;2022-12-11T08:40:02;5.20;;;0.98;;
6426;SDS011;3246;42.664;23.308;2022-12-11T08:42:30;3.00;;;0.85;;
6426;SDS011;3246;42.664;23.308;2022-12-11T08:44:57;0.75;;;0.75;;
6426;SDS011;3246;42.664;23.308;2022-12-11T08:47:23;0.85;;;0.70;;
6426;SDS011;3246;42.664;23.308;2022-12-11T08:49:50;1.83;;;1.30;;
6426;SDS011;3246;42.664;23.308;2022-12-11T08:52:17;2.75;;;1.15;;
6426;SDS011;3246;42.664;23.308;2022-12-11T08:54:43;0.75;;;0.75;;
6426;SDS011;3246;42.664;23.308;2022-12-11T08:57:10;1.77;;;1.30;;
6426;SDS011;3246;42.664;23.308;2022-12-11T08:59:38;2.28;;;1.30;;
6426;SDS011;3246;42.664;23.308;2022-12-11T09:02:04;2.65;;;1.13;;
6426;SDS011;3246;42.664;23.308;2022-12-11T09:04:31;3.85;;;1.45;;
6426;SDS011;3246;42.664;23.308;2022-12-11T09:06:58;3.67;;;1.67;;
6426;SDS011;3246;42.664;23.308;2022-12-11T09:09:24;1.50;;;1.38;;
6426;SDS011;3246;42.664;23.308;2022-12-11T09:11:51;0.82;;;0.82;;
6426;SDS011;3246;42.664;23.308;2022-12-11T09:14:17;1.95;;;1.33;;
6426;SDS011;3246;42.664;23.308;2022-12-11T09:16:45;2.42;;;1.63;;
6426;SDS011;3246;42.664;23.308;2022-12-11T09:19:12;2.33;;;2.08;;
6426;SDS011;3246;42.664;23.308;2022-12-11T09:21:39;2.45;;;1.45;;
6426;SDS011;3246;42.664;23.308;2022-12-11T09:24:07;3.63;;;1.30;;
6426;SDS011;3246;42.664;23.308;2022-12-11T09:26:34;4.32;;;0.93;;
6426;SDS011;3246;42.664;23.308;2022-12-11T09:29:01;1.05;;;1.00;;
6426;SDS011;3246;42.664;23.308;2022-12-11T09:31:29;2.60;;;1.38;;
6426;SDS011;3246;42.664;23.308;2022-12-11T09:33:58;0.82;;;0.82;;
6426;SDS011;3246;42.664;23.308;2022-12-11T09:36:25;0.85;;;0.85;;
6426;SDS011;3246;42.664;23.308;2022-12-11T09:38:52;1.05;;;0.90;;
6426;SDS011;3246;42.664;23.308;2022-12-11T09:41:23;1.95;;;1.30;;
6426;SDS011;3246;42.664;23.308;2022-12-11T09:43:56;1.65;;;0.98;;
6426;SDS011;3246;42.664;23.308;2022-12-11T09:46:25;0.88;;;0.73;;
6426;SDS011;3246;42.664;23.308;2022-12-11T09:48:52;2.10;;;1.13;;
6426;SDS011;3246;42.664;23.308;2022-12-11T09:51:20;1.48;;;1.17;;
6426;SDS011;3246;42.664;23.308;2022-12-11T09:53:49;4.13;;;0.90;;
6426;SDS011;3246;42.664;23.308;2022-12-11T09:56:18;3.55;;;1.08;;
6426;SDS011;3246;42.664;23.308;2022-12-11T09:58:50;4.20;;;1.45;;
6426;SDS011;3246;42.664;23.308;2022-12-11T10:01:22;1.67;;;1.10;;
6426;SDS011;3246;42.664;23.308;2022-12-11T10:06:44;1.00;;;0.80;;
6426;SDS011;3246;42.664;23.308;2022-12-11T10:09:12;1.00;;;1.00;;
6426;SDS011;3246;42.664;23.308;2022-12-11T10:11:47;2.67;;;1.27;;
6426;SDS011;3246;42.664;23.308;2022-12-11T10:14:17;1.83;;;1.08;;
6426;SDS011;3246;42.664;23.308;2022-12-11T10:16:47;1.08;;;0.95;;
6426;SDS011;3246;42.664;23.308;2022-12-11T10:19:16;1.15;;;0.88;;
6426;SDS011;3246;42.664;23.308;2022-12-11T10:21:44;1.95;;;1.00;;
6426;SDS011;3246;42.664;23.308;2022-12-11T10:24:13;1.27;;;1.08;;
6426;SDS011;3246;42.664;23.308;2022-12-11T10:26:41;0.43;;;0.43;;
6426;SDS011;3246;42.664;23.308;2022-12-11T10:29:09;0.80;;;0.80;;
6426;SDS011;3246;42.664;23.308;2022-12-11T10:31:40;0.60;;;0.50;;
6426;SDS011;3246;42.664;23.308;2022-12-11T10:34:10;2.08;;;1.13;;
6426;SDS011;3246;42.664;23.308;2022-12-11T10:36:38;1.98;;;0.70;;
6426;SDS011;3246;42.664;23.308;2022-12-11T10:39:11;0.65;;;0.65;;
6426;SDS011;3246;42.664;23.308;2022-12-11T10:41:41;1.50;;;1.20;;
6426;SDS011;3246;42.664;23.308;2022-12-11T10:44:13;1.67;;;1.02;;
6426;SDS011;3246;42.664;23.308;2022-12-11T10:46:40;1.42;;;1.17;;
6426;SDS011;3246;42.664;23.308;2022-12-11T10:49:17;1.40;;;1.25;;
6426;SDS011;3246;42.664;23.308;2022-12-11T10:51:45;2.63;;;2.42;;
6426;SDS011;3246;42.664;23.308;2022-12-11T10:54:16;4.05;;;2.58;;
6426;SDS011;3246;42.664;23.308;2022-12-11T10:56:44;0.80;;;0.80;;
6426;SDS011;3246;42.664;23.308;2022-12-11T10:59:12;1.35;;;1.08;;
6426;SDS011;3246;42.664;23.308;2022-12-11T11:01:44;0.82;;;0.82;;
6426;SDS011;3246;42.664;23.308;2022-12-11T11:04:13;3.90;;;1.15;;
6426;SDS011;3246;42.664;23.308;2022-12-11T11:06:40;1.48;;;1.30;;
6426;SDS011;3246;42.664;23.308;2022-12-11T11:09:25;2.50;;;1.10;;
6426;SDS011;3246;42.664;23.308;2022-12-11T11:11:53;2.53;;;1.42;;
6426;SDS011;3246;42.664;23.308;2022-12-11T11:14:20;1.42;;;1.15;;
6426;SDS011;3246;42.664;23.308;2022-12-11T11:16:47;1.40;;;1.30;;
6426;SDS011;3246;42.664;23.308;2022-12-11T11:19:18;2.30;;;1.45;;
6426;SDS011;3246;42.664;23.308;2022-12-11T11:21:47;1.08;;;1.00;;
6426;SDS011;3246;42.664;23.308;2022-12-11T11:24:18;1.30;;;0.75;;
6426;SDS011;3246;42.664;23.308;2022-12-11T11:26:50;1.25;;;0.95;;
6426;SDS011;3246;42.664;23.308;2022-12-11T11:29:21;3.38;;;1.73;;
6426;SDS011;3246;42.664;23.308;2022-12-11T11:31:48;8.57;;;1.42;;
6426;SDS011;3246;42.664;23.308;2022-12-11T11:34:16;1.52;;;1.42;;
6426;SDS011;3246;42.664;23.308;2022-12-11T11:36:53;1.15;;;1.13;;
6426;SDS011;3246;42.664;23.308;2022-12-11T11:39:22;1.40;;;1.10;;
6426;SDS011;3246;42.664;23.308;2022-12-11T11:41:54;0.90;;;0.90;;
6426;SDS011;3246;42.664;23.308;2022-12-11T11:44:24;1.65;;;1.38;;
6426;SDS011;3246;42.664;23.308;2022-12-11T11:46:54;1.35;;;1.23;;
6426;SDS011;3246;42.664;23.308;2022-12-11T11:49:23;1.15;;;0.93;;
6426;SDS011;3246;42.664;23.308;2022-12-11T11:51:54;1.60;;;1.50;;
6426;SDS011;3246;42.664;23.308;2022-12-11T11:54:24;3.08;;;1.25;;
6426;SDS011;3246;42.664;23.308;2022-12-11T11:56:55;3.30;;;1.45;;
6426;SDS011;3246;42.664;23.308;2022-12-11T11:59:22;0.75;;;0.70;;
6426;SDS011;3246;42.664;23.308;2022-12-11T12:01:50;2.63;;;1.60;;
6426;SDS011;3246;42.664;23.308;2022-12-11T12:04:18;2.17;;;1.25;;
6426;SDS011;3246;42.664;23.308;2022-12-11T12:06:56;4.30;;;1.58;;
6426;SDS011;3246;42.664;23.308;2022-12-11T12:09:32;1.67;;;1.13;;
6426;SDS011;3246;42.664;23.308;2022-12-11T12:12:02;6.00;;;1.42;;
6426;SDS011;3246;42.664;23.308;2022-12-11T12:14:32;3.20;;;1.20;;
6426;SDS011;3246;42.664;23.308;2022-12-11T12:17:04;8.45;;;1.77;;
6426;SDS011;3246;42.664;23.308;2022-12-11T12:19:35;6.60;;;1.55;;
6426;SDS011;3246;42.664;23.308;2022-12-11T12:22:06;2.28;;;2.00;;
6426;SDS011;3246;42.664;23.308;2022-12-11T12:24:38;2.13;;;1.92;;
6426;SDS011;3246;42.664;23.308;2022-12-11T12:27:12;2.83;;;1.40;;
6426;SDS011;3246;42.664;23.308;2022-12-11T12:29:43;3.15;;;1.55;;
6426;SDS011;3246;42.664;23.308;2022-12-11T12:32:14;2.70;;;1.45;;
6426;SDS011;3246;42.664;23.308;2022-12-11T12:34:50;1.85;;;1.73;;
6426;SDS011;3246;42.664;23.308;2022-12-11T12:37:21;1.77;;;1.33;;
6426;SDS011;3246;42.664;23.308;2022-12-11T12:39:51;2.07;;;1.97;;
6426;SDS011;3246;42.664;23.308;2022-12-11T12:42:25;1.17;;;1.17;;
6426;SDS011;3246;42.664;23.308;2022-12-11T12:44:57;4.07;;;1.27;;
6426;SDS011;3246;42.664;23.308;2022-12-11T12:47:24;1.13;;;1.03;;
6426;SDS011;3246;42.664;23.308;2022-12-11T12:49:52;1.30;;;1.23;;
6426;SDS011;3246;42.664;23.308;2022-12-11T12:52:20;2.43;;;1.30;;
6426;SDS011;3246;42.664;23.308;2022-12-11T12:54:47;2.40;;;1.20;;
6426;SDS011;3246;42.664;23.308;2022-12-11T12:57:31;1.40;;;1.40;;
6426;SDS011;3246;42.664;23.308;2022-12-11T12:59:58;1.50;;;1.13;;
6426;SDS011;3246;42.664;23.308;2022-12-11T13:02:24;4.93;;;1.03;;
6426;SDS011;3246;42.664;23.308;2022-12-11T13:04:54;3.50;;;1.83;;
6426;SDS011;3246;42.664;23.308;2022-12-11T13:07:22;1.30;;;1.20;;
6426;SDS011;3246;42.664;23.308;2022-12-11T13:09:57;0.97;;;0.97;;
6426;SDS011;3246;42.664;23.308;2022-12-11T13:12:33;2.20;;;0.83;;
6426;SDS011;3246;42.664;23.308;2022-12-11T13:15:21;1.53;;;1.13;;
6426;SDS011;3246;42.664;23.308;2022-12-11T13:17:48;2.13;;;2.00;;
6426;SDS011;3246;42.664;23.308;2022-12-11T13:20:15;1.53;;;1.40;;
6426;SDS011;3246;42.664;23.308;2022-12-11T13:22:49;4.57;;;1.33;;
6426;SDS011;3246;42.664;23.308;2022-12-11T13:25:19;1.40;;;1.30;;
6426;SDS011;3246;42.664;23.308;2022-12-11T13:27:47;1.30;;;1.13;;
6426;SDS011;3246;42.664;23.308;2022-12-11T13:30:22;1.67;;;1.40;;
6426;SDS011;3246;42.664;23.308;2022-12-11T13:32:51;1.07;;;1.00;;
6426;SDS011;3246;42.664;23.308;2022-12-11T13:35:20;2.20;;;1.30;;
6426;SDS011;3246;42.664;23.308;2022-12-11T13:37:48;1.50;;;1.40;;
6426;SDS011;3246;42.664;23.308;2022-12-11T13:40:16;1.50;;;1.40;;
6426;SDS011;3246;42.664;23.308;2022-12-11T13:42:46;1.37;;;1.27;;
6426;SDS011;3246;42.664;23.308;2022-12-11T13:45:18;2.10;;;1.50;;
6426;SDS011;3246;42.664;23.308;2022-12-11T13:47:46;1.67;;;1.57;;
6426;SDS011;3246;42.664;23.308;2022-12-11T13:50:14;1.43;;;1.37;;
6426;SDS011;3246;42.664;23.308;2022-12-11T13:52:51;1.73;;;1.63;;
6426;SDS011;3246;42.664;23.308;2022-12-11T13:55:20;1.30;;;1.13;;
6426;SDS011;3246;42.664;23.308;2022-12-11T13:57:48;2.40;;;1.50;;
6426;SDS011;3246;42.664;23.308;2022-12-11T14:00:21;2.23;;;1.80;;
6426;SDS011;3246;42.664;23.308;2022-12-11T14:02:48;2.13;;;1.87;;
6426;SDS011;3246;42.664;23.308;2022-12-11T14:05:15;1.90;;;1.80;;
6426;SDS011;3246;42.664;23.308;2022-12-11T14:07:42;2.60;;;2.40;;
6426;SDS011;3246;42.664;23.308;2022-12-11T14:10:13;2.40;;;2.20;;
6426;SDS011;3246;42.664;23.308;2022-12-11T14:12:41;3.57;;;2.00;;
6426;SDS011;3246;42.664;23.308;2022-12-11T14:15:10;1.87;;;1.77;;
6426;SDS011;3246;42.664;23.308;2022-12-11T14:17:40;2.57;;;1.53;;
6426;SDS011;3246;42.664;23.308;2022-12-11T14:20:13;2.77;;;1.93;;
6426;SDS011;3246;42.664;23.308;2022-12-11T14:22:41;3.70;;;2.67;;
6426;SDS011;3246;42.664;23.308;2022-12-11T14:25:16;3.23;;;2.93;;
6426;SDS011;3246;42.664;23.308;2022-12-11T14:27:46;3.10;;;2.60;;
6426;SDS011;3246;42.664;23.308;2022-12-11T14:30:18;2.60;;;2.40;;
6426;SDS011;3246;42.664;23.308;2022-12-11T14:32:46;4.03;;;2.50;;
6426;SDS011;3246;42.664;23.308;2022-12-11T14:35:17;3.97;;;2.77;;
6426;SDS011;3246;42.664;23.308;2022-12-11T14:37:46;10.10;;;3.53;;
6426;SDS011;3246;42.664;23.308;2022-12-11T14:40:15;2.77;;;2.57;;
6426;SDS011;3246;42.664;23.308;2022-12-11T14:42:42;3.73;;;3.03;;
6426;SDS011;3246;42.664;23.308;2022-12-11T14:45:15;1.90;;;1.80;;
6426;SDS011;3246;42.664;23.308;2022-12-11T14:47:43;4.00;;;3.57;;
6426;SDS011;3246;42.664;23.308;2022-12-11T14:50:13;4.53;;;2.80;;
6426;SDS011;3246;42.664;23.308;2022-12-11T14:52:43;2.33;;;1.67;;
6426;SDS011;3246;42.664;23.308;2022-12-11T14:55:12;2.20;;;2.10;;
6426;SDS011;3246;42.664;23.308;2022-12-11T14:57:41;2.37;;;2.17;;
6426;SDS011;3246;42.664;23.308;2022-12-11T15:00:19;3.30;;;3.00;;
6426;SDS011;3246;42.664;23.308;2022-12-11T15:02:54;3.47;;;2.70;;
6426;SDS011;3246;42.664;23.308;2022-12-11T15:05:22;3.37;;;3.03;;
6426;SDS011;3246;42.664;23.308;2022-12-11T15:07:54;4.03;;;3.07;;
6426;SDS011;3246;42.664;23.308;2022-12-11T15:10:22;3.77;;;2.83;;
6426;SDS011;3246;42.664;23.308;2022-12-11T15:12:48;4.33;;;1.60;;